Mc Alpin, Florida
Current Conditions -  °F | °C
As of 8:35 AM on Wednesday 22 Oct 2014 (Local Time) from K24J Reporting Station
Clear Clear  
Wind Chill: 59°   Ceiling: Unl
Heat Index: 59°   Visibility: 10mi
Dew Point: 55°   Wind: 6mph
Humidity: 88%   Direction: 10°N
Pressure: 30.04"   Gusts: NA
Location:  30.1386°N, 82.9504°W
Report Text: K24J 221235Z AUTO 01005KT 10SM CLR 15/13 A3004 RMK AO1
Loading
Personal Weather Stations






























Interactive Weather Map
Tropical Storm Tracking
New forecast layout! Learn more

10-Day Weather Forecast

Advertisements
Track Severe Weather on mobile